sensor_id;sensor_type;location;lat;lon;timestamp;P1;durP1;ratioP1;P2;durP2;ratioP2
18188;SDS011;9219;50.396;8.546;2022-10-03T00:08:04;34.93;;;14.50;;
18188;SDS011;9219;50.396;8.546;2022-10-03T00:10:46;41.37;;;14.80;;
18188;SDS011;9219;50.396;8.546;2022-10-03T00:13:23;33.67;;;13.47;;
18188;SDS011;9219;50.396;8.546;2022-10-03T00:16:05;58.97;;;15.57;;
18188;SDS011;9219;50.396;8.546;2022-10-03T00:18:42;32.67;;;13.73;;
18188;SDS011;9219;50.396;8.546;2022-10-03T00:21:22;35.23;;;14.87;;
18188;SDS011;9219;50.396;8.546;2022-10-03T00:29:32;29.47;;;14.57;;
18188;SDS011;9219;50.396;8.546;2022-10-03T00:32:14;37.17;;;13.33;;
18188;SDS011;9219;50.396;8.546;2022-10-03T00:34:55;29.93;;;13.80;;
18188;SDS011;9219;50.396;8.546;2022-10-03T00:37:39;30.67;;;12.63;;
18188;SDS011;9219;50.396;8.546;2022-10-03T00:40:27;38.13;;;16.10;;
18188;SDS011;9219;50.396;8.546;2022-10-03T00:51:35;30.73;;;13.90;;
18188;SDS011;9219;50.396;8.546;2022-10-03T00:54:18;35.07;;;13.40;;
18188;SDS011;9219;50.396;8.546;2022-10-03T00:57:18;34.67;;;14.47;;
18188;SDS011;9219;50.396;8.546;2022-10-03T01:02:57;40.67;;;15.07;;
18188;SDS011;9219;50.396;8.546;2022-10-03T01:05:37;42.93;;;15.07;;
18188;SDS011;9219;50.396;8.546;2022-10-03T01:14:05;38.13;;;14.83;;
18188;SDS011;9219;50.396;8.546;2022-10-03T01:16:43;47.17;;;16.70;;
18188;SDS011;9219;50.396;8.546;2022-10-03T01:19:28;35.93;;;16.27;;
18188;SDS011;9219;50.396;8.546;2022-10-03T01:22:15;53.17;;;17.80;;
18188;SDS011;9219;50.396;8.546;2022-10-03T01:25:06;44.23;;;16.63;;
18188;SDS011;9219;50.396;8.546;2022-10-03T01:27:40;29.03;;;15.33;;
18188;SDS011;9219;50.396;8.546;2022-10-03T01:30:28;49.43;;;18.47;;
18188;SDS011;9219;50.396;8.546;2022-10-03T01:36:04;50.80;;;19.70;;
18188;SDS011;9219;50.396;8.546;2022-10-03T01:38:41;58.80;;;21.00;;
18188;SDS011;9219;50.396;8.546;2022-10-03T01:41:14;56.93;;;19.30;;
18188;SDS011;9219;50.396;8.546;2022-10-03T01:43:50;168.87;;;27.40;;
18188;SDS011;9219;50.396;8.546;2022-10-03T01:46:21;57.03;;;19.63;;
18188;SDS011;9219;50.396;8.546;2022-10-03T01:48:54;64.60;;;20.00;;
18188;SDS011;9219;50.396;8.546;2022-10-03T01:51:32;151.43;;;26.83;;
18188;SDS011;9219;50.396;8.546;2022-10-03T02:02:05;50.17;;;19.43;;
18188;SDS011;9219;50.396;8.546;2022-10-03T02:04:41;201.53;;;26.00;;
18188;SDS011;9219;50.396;8.546;2022-10-03T02:07:16;51.10;;;18.77;;
18188;SDS011;9219;50.396;8.546;2022-10-03T02:10:00;53.07;;;18.70;;
18188;SDS011;9219;50.396;8.546;2022-10-03T02:12:33;88.93;;;22.17;;
18188;SDS011;9219;50.396;8.546;2022-10-03T02:15:11;57.33;;;19.83;;
18188;SDS011;9219;50.396;8.546;2022-10-03T02:17:47;76.70;;;21.37;;
18188;SDS011;9219;50.396;8.546;2022-10-03T02:25:30;56.27;;;18.93;;
18188;SDS011;9219;50.396;8.546;2022-10-03T02:28:21;57.67;;;17.93;;
18188;SDS011;9219;50.396;8.546;2022-10-03T02:31:14;136.70;;;25.17;;
18188;SDS011;9219;50.396;8.546;2022-10-03T02:49:29;257.27;;;31.20;;
18188;SDS011;9219;50.396;8.546;2022-10-03T02:52:19;348.33;;;34.37;;
18188;SDS011;9219;50.396;8.546;2022-10-03T02:55:17;340.37;;;34.90;;
18188;SDS011;9219;50.396;8.546;2022-10-03T03:04:13;441.93;;;43.07;;
18188;SDS011;9219;50.396;8.546;2022-10-03T03:16:30;481.80;;;43.67;;
18188;SDS011;9219;50.396;8.546;2022-10-03T03:19:21;653.87;;;52.67;;
18188;SDS011;9219;50.396;8.546;2022-10-03T03:22:07;771.80;;;65.10;;
18188;SDS011;9219;50.396;8.546;2022-10-03T03:24:57;761.47;;;54.80;;
18188;SDS011;9219;50.396;8.546;2022-10-03T03:30:43;722.33;;;58.07;;
18188;SDS011;9219;50.396;8.546;2022-10-03T03:33:21;767.07;;;65.77;;
18188;SDS011;9219;50.396;8.546;2022-10-03T03:36:00;790.13;;;65.73;;
18188;SDS011;9219;50.396;8.546;2022-10-03T03:38:38;911.43;;;88.63;;
18188;SDS011;9219;50.396;8.546;2022-10-03T03:41:17;739.23;;;67.43;;
18188;SDS011;9219;50.396;8.546;2022-10-03T03:43:59;765.53;;;74.40;;
18188;SDS011;9219;50.396;8.546;2022-10-03T03:49:29;207.10;;;27.57;;
18188;SDS011;9219;50.396;8.546;2022-10-03T03:52:08;262.90;;;34.27;;
18188;SDS011;9219;50.396;8.546;2022-10-03T03:54:52;122.47;;;24.30;;
18188;SDS011;9219;50.396;8.546;2022-10-03T03:57:41;131.70;;;23.20;;
18188;SDS011;9219;50.396;8.546;2022-10-03T04:00:39;756.77;;;70.47;;
18188;SDS011;9219;50.396;8.546;2022-10-03T04:03:24;361.73;;;42.23;;
18188;SDS011;9219;50.396;8.546;2022-10-03T04:06:06;513.20;;;46.67;;
18188;SDS011;9219;50.396;8.546;2022-10-03T04:13:56;114.70;;;25.13;;
18188;SDS011;9219;50.396;8.546;2022-10-03T04:16:53;105.60;;;23.73;;
18188;SDS011;9219;50.396;8.546;2022-10-03T04:19:50;356.93;;;44.60;;
18188;SDS011;9219;50.396;8.546;2022-10-03T04:22:34;668.87;;;66.97;;
18188;SDS011;9219;50.396;8.546;2022-10-03T04:28:35;94.83;;;22.37;;
18188;SDS011;9219;50.396;8.546;2022-10-03T04:38:55;67.00;;;20.23;;
18188;SDS011;9219;50.396;8.546;2022-10-03T04:41:32;70.87;;;20.40;;
18188;SDS011;9219;50.396;8.546;2022-10-03T04:44:10;66.97;;;20.43;;
18188;SDS011;9219;50.396;8.546;2022-10-03T04:46:51;52.93;;;19.03;;
18188;SDS011;9219;50.396;8.546;2022-10-03T04:49:23;74.60;;;20.17;;
18188;SDS011;9219;50.396;8.546;2022-10-03T04:51:57;78.70;;;20.73;;
18188;SDS011;9219;50.396;8.546;2022-10-03T04:54:32;52.40;;;18.57;;
18188;SDS011;9219;50.396;8.546;2022-10-03T05:02:20;42.03;;;15.00;;
18188;SDS011;9219;50.396;8.546;2022-10-03T05:05:12;38.90;;;15.20;;
18188;SDS011;9219;50.396;8.546;2022-10-03T05:08:01;34.47;;;13.90;;
18188;SDS011;9219;50.396;8.546;2022-10-03T05:10:48;30.77;;;12.40;;
18188;SDS011;9219;50.396;8.546;2022-10-03T05:13:30;39.03;;;14.93;;
18188;SDS011;9219;50.396;8.546;2022-10-03T05:16:06;39.37;;;14.67;;
18188;SDS011;9219;50.396;8.546;2022-10-03T05:18:44;41.13;;;13.93;;
18188;SDS011;9219;50.396;8.546;2022-10-03T05:26:40;48.97;;;16.60;;
18188;SDS011;9219;50.396;8.546;2022-10-03T05:29:22;38.67;;;14.83;;
18188;SDS011;9219;50.396;8.546;2022-10-03T05:32:03;47.90;;;15.60;;
18188;SDS011;9219;50.396;8.546;2022-10-03T05:34:44;53.70;;;16.17;;
18188;SDS011;9219;50.396;8.546;2022-10-03T05:37:24;52.63;;;16.73;;
18188;SDS011;9219;50.396;8.546;2022-10-03T05:40:12;64.87;;;19.87;;
18188;SDS011;9219;50.396;8.546;2022-10-03T05:42:51;56.90;;;18.60;;
18188;SDS011;9219;50.396;8.546;2022-10-03T05:56:53;59.70;;;18.07;;
18188;SDS011;9219;50.396;8.546;2022-10-03T05:59:41;88.27;;;19.87;;
18188;SDS011;9219;50.396;8.546;2022-10-03T06:02:44;56.87;;;16.90;;
18188;SDS011;9219;50.396;8.546;2022-10-03T06:05:23;59.80;;;18.57;;
18188;SDS011;9219;50.396;8.546;2022-10-03T06:08:04;54.33;;;17.97;;
18188;SDS011;9219;50.396;8.546;2022-10-03T06:13:54;46.10;;;18.37;;
18188;SDS011;9219;50.396;8.546;2022-10-03T06:16:43;64.47;;;19.90;;
18188;SDS011;9219;50.396;8.546;2022-10-03T06:19:21;71.50;;;21.90;;
18188;SDS011;9219;50.396;8.546;2022-10-03T06:25:35;68.23;;;23.47;;
18188;SDS011;9219;50.396;8.546;2022-10-03T06:40:24;75.80;;;23.47;;
18188;SDS011;9219;50.396;8.546;2022-10-03T06:43:34;64.70;;;22.50;;
18188;SDS011;9219;50.396;8.546;2022-10-03T06:46:18;63.60;;;20.93;;
18188;SDS011;9219;50.396;8.546;2022-10-03T06:49:13;56.33;;;20.20;;
18188;SDS011;9219;50.396;8.546;2022-10-03T06:52:13;43.80;;;14.33;;
18188;SDS011;9219;50.396;8.546;2022-10-03T06:55:09;63.50;;;19.73;;
18188;SDS011;9219;50.396;8.546;2022-10-03T07:06:06;44.07;;;14.93;;
18188;SDS011;9219;50.396;8.546;2022-10-03T07:21:24;48.17;;;16.90;;
18188;SDS011;9219;50.396;8.546;2022-10-03T07:30:16;31.27;;;15.57;;
18188;SDS011;9219;50.396;8.546;2022-10-03T07:39:32;36.17;;;17.30;;
18188;SDS011;9219;50.396;8.546;2022-10-03T07:51:30;36.23;;;15.80;;
18188;SDS011;9219;50.396;8.546;2022-10-03T07:57:19;32.83;;;15.67;;
18188;SDS011;9219;50.396;8.546;2022-10-03T08:02:59;26.27;;;13.37;;
18188;SDS011;9219;50.396;8.546;2022-10-03T08:13:39;30.97;;;11.23;;
18188;SDS011;9219;50.396;8.546;2022-10-03T08:16:28;22.43;;;9.63;;
18188;SDS011;9219;50.396;8.546;2022-10-03T08:19:23;28.57;;;9.90;;
18188;SDS011;9219;50.396;8.546;2022-10-03T08:22:05;19.67;;;8.37;;
18188;SDS011;9219;50.396;8.546;2022-10-03T08:27:39;12.13;;;6.10;;
18188;SDS011;9219;50.396;8.546;2022-10-03T08:38:42;16.83;;;5.57;;
18188;SDS011;9219;50.396;8.546;2022-10-03T08:44:54;11.53;;;4.40;;
18188;SDS011;9219;50.396;8.546;2022-10-03T08:47:33;9.43;;;3.90;;
18188;SDS011;9219;50.396;8.546;2022-10-03T09:02:42;5.97;;;3.00;;
18188;SDS011;9219;50.396;8.546;2022-10-03T09:09:27;8.93;;;3.23;;
18188;SDS011;9219;50.396;8.546;2022-10-03T09:12:22;13.10;;;4.10;;
18188;SDS011;9219;50.396;8.546;2022-10-03T09:15:10;11.37;;;4.03;;
18188;SDS011;9219;50.396;8.546;2022-10-03T09:26:57;13.67;;;4.53;;
18188;SDS011;9219;50.396;8.546;2022-10-03T09:30:03;9.07;;;3.43;;
18188;SDS011;9219;50.396;8.546;2022-10-03T09:39:24;11.70;;;2.90;;
18188;SDS011;9219;50.396;8.546;2022-10-03T09:53:47;5.93;;;2.80;;
18188;SDS011;9219;50.396;8.546;2022-10-03T09:56:40;7.87;;;3.53;;
18188;SDS011;9219;50.396;8.546;2022-10-03T09:59:59;9.70;;;3.70;;
18188;SDS011;9219;50.396;8.546;2022-10-03T10:20:33;6.17;;;2.40;;
18188;SDS011;9219;50.396;8.546;2022-10-03T10:23:31;6.37;;;2.77;;
18188;SDS011;9219;50.396;8.546;2022-10-03T10:29:34;10.90;;;2.10;;
18188;SDS011;9219;50.396;8.546;2022-10-03T10:38:01;5.90;;;2.10;;
18188;SDS011;9219;50.396;8.546;2022-10-03T10:50:36;9.93;;;2.30;;
18188;SDS011;9219;50.396;8.546;2022-10-03T11:05:26;4.63;;;2.40;;
18188;SDS011;9219;50.396;8.546;2022-10-03T11:36:47;6.77;;;3.07;;
18188;SDS011;9219;50.396;8.546;2022-10-03T11:39:34;9.67;;;3.83;;
18188;SDS011;9219;50.396;8.546;2022-10-03T11:42:20;6.83;;;3.47;;
18188;SDS011;9219;50.396;8.546;2022-10-03T11:44:55;13.17;;;3.60;;
18188;SDS011;9219;50.396;8.546;2022-10-03T11:52:51;8.20;;;3.53;;
18188;SDS011;9219;50.396;8.546;2022-10-03T11:55:42;11.50;;;3.40;;
18188;SDS011;9219;50.396;8.546;2022-10-03T11:58:30;11.13;;;3.40;;
18188;SDS011;9219;50.396;8.546;2022-10-03T12:01:17;7.27;;;2.53;;
18188;SDS011;9219;50.396;8.546;2022-10-03T12:03:59;11.17;;;3.23;;
18188;SDS011;9219;50.396;8.546;2022-10-03T12:06:56;7.93;;;2.90;;
18188;SDS011;9219;50.396;8.546;2022-10-03T12:15:01;10.90;;;2.83;;
18188;SDS011;9219;50.396;8.546;2022-10-03T12:17:45;8.77;;;3.10;;
18188;SDS011;9219;50.396;8.546;2022-10-03T12:20:23;4.87;;;2.20;;
18188;SDS011;9219;50.396;8.546;2022-10-03T12:22:59;6.00;;;3.23;;
18188;SDS011;9219;50.396;8.546;2022-10-03T12:25:43;6.87;;;3.03;;
18188;SDS011;9219;50.396;8.546;2022-10-03T12:28:16;7.87;;;3.00;;
18188;SDS011;9219;50.396;8.546;2022-10-03T12:30:51;8.50;;;2.80;;
18188;SDS011;9219;50.396;8.546;2022-10-03T12:33:40;5.37;;;2.73;;
18188;SDS011;9219;50.396;8.546;2022-10-03T12:41:48;10.33;;;3.30;;
18188;SDS011;9219;50.396;8.546;2022-10-03T12:44:30;5.33;;;3.33;;
18188;SDS011;9219;50.396;8.546;2022-10-03T12:47:12;10.07;;;4.60;;
18188;SDS011;9219;50.396;8.546;2022-10-03T12:50:21;8.77;;;3.87;;
18188;SDS011;9219;50.396;8.546;2022-10-03T12:53:14;4.57;;;2.50;;
18188;SDS011;9219;50.396;8.546;2022-10-03T12:56:16;6.77;;;3.03;;
18188;SDS011;9219;50.396;8.546;2022-10-03T13:07:01;9.17;;;3.83;;
18188;SDS011;9219;50.396;8.546;2022-10-03T13:09:56;5.57;;;3.47;;
18188;SDS011;9219;50.396;8.546;2022-10-03T13:12:43;7.30;;;3.60;;
18188;SDS011;9219;50.396;8.546;2022-10-03T13:21:17;4.93;;;2.90;;
18188;SDS011;9219;50.396;8.546;2022-10-03T13:26:55;11.47;;;3.37;;
18188;SDS011;9219;50.396;8.546;2022-10-03T13:29:40;5.60;;;3.20;;
18188;SDS011;9219;50.396;8.546;2022-10-03T13:32:25;6.33;;;3.03;;
18188;SDS011;9219;50.396;8.546;2022-10-03T13:38:20;6.97;;;3.40;;
18188;SDS011;9219;50.396;8.546;2022-10-03T13:41:16;6.20;;;3.07;;
18188;SDS011;9219;50.396;8.546;2022-10-03T13:44:00;10.33;;;3.53;;
18188;SDS011;9219;50.396;8.546;2022-10-03T13:52:03;8.90;;;3.50;;
18188;SDS011;9219;50.396;8.546;2022-10-03T13:57:56;5.53;;;3.23;;
18188;SDS011;9219;50.396;8.546;2022-10-03T14:00:45;8.17;;;3.67;;
18188;SDS011;9219;50.396;8.546;2022-10-03T14:03:26;9.47;;;3.40;;
18188;SDS011;9219;50.396;8.546;2022-10-03T14:06:11;5.80;;;3.00;;
18188;SDS011;9219;50.396;8.546;2022-10-03T14:14:21;8.50;;;3.67;;
18188;SDS011;9219;50.396;8.546;2022-10-03T14:17:03;9.93;;;4.20;;
18188;SDS011;9219;50.396;8.546;2022-10-03T14:19:44;7.63;;;4.40;;
18188;SDS011;9219;50.396;8.546;2022-10-03T14:26:04;6.30;;;2.30;;
18188;SDS011;9219;50.396;8.546;2022-10-03T14:28:43;7.20;;;2.60;;
18188;SDS011;9219;50.396;8.546;2022-10-03T14:39:10;8.40;;;3.20;;
18188;SDS011;9219;50.396;8.546;2022-10-03T14:42:10;4.83;;;3.37;;
18188;SDS011;9219;50.396;8.546;2022-10-03T14:44:57;4.20;;;3.13;;
18188;SDS011;9219;50.396;8.546;2022-10-03T14:47:35;4.37;;;3.23;;
18188;SDS011;9219;50.396;8.546;2022-10-03T14:50:13;7.73;;;3.97;;
18188;SDS011;9219;50.396;8.546;2022-10-03T14:52:49;5.13;;;3.27;;
18188;SDS011;9219;50.396;8.546;2022-10-03T14:55:57;8.03;;;3.43;;
18188;SDS011;9219;50.396;8.546;2022-10-03T14:58:34;9.50;;;3.23;;
18188;SDS011;9219;50.396;8.546;2022-10-03T15:01:14;11.10;;;3.17;;
18188;SDS011;9219;50.396;8.546;2022-10-03T15:03:51;8.70;;;3.30;;
18188;SDS011;9219;50.396;8.546;2022-10-03T15:06:30;6.63;;;3.77;;
18188;SDS011;9219;50.396;8.546;2022-10-03T15:09:20;10.20;;;3.33;;
18188;SDS011;9219;50.396;8.546;2022-10-03T15:11:58;6.23;;;3.40;;
18188;SDS011;9219;50.396;8.546;2022-10-03T15:19:37;5.13;;;3.20;;
18188;SDS011;9219;50.396;8.546;2022-10-03T15:25:03;5.43;;;2.67;;
18188;SDS011;9219;50.396;8.546;2022-10-03T15:27:35;7.23;;;3.10;;
18188;SDS011;9219;50.396;8.546;2022-10-03T15:30:14;4.50;;;2.43;;
18188;SDS011;9219;50.396;8.546;2022-10-03T15:32:48;5.57;;;2.40;;
18188;SDS011;9219;50.396;8.546;2022-10-03T15:35:26;10.13;;;2.97;;
18188;SDS011;9219;50.396;8.546;2022-10-03T15:43:06;9.27;;;3.07;;
18188;SDS011;9219;50.396;8.546;2022-10-03T15:45:54;9.93;;;3.37;;
18188;SDS011;9219;50.396;8.546;2022-10-03T15:48:23;8.47;;;3.77;;
18188;SDS011;9219;50.396;8.546;2022-10-03T15:50:55;6.43;;;3.50;;
18188;SDS011;9219;50.396;8.546;2022-10-03T15:53:33;15.50;;;4.13;;
18188;SDS011;9219;50.396;8.546;2022-10-03T15:56:08;8.83;;;3.37;;
18188;SDS011;9219;50.396;8.546;2022-10-03T15:58:44;7.17;;;2.97;;
18188;SDS011;9219;50.396;8.546;2022-10-03T16:01:21;6.57;;;2.50;;
18188;SDS011;9219;50.396;8.546;2022-10-03T16:09:24;10.57;;;3.57;;
18188;SDS011;9219;50.396;8.546;2022-10-03T16:12:00;9.23;;;3.57;;
18188;SDS011;9219;50.396;8.546;2022-10-03T16:14:44;5.53;;;2.93;;
18188;SDS011;9219;50.396;8.546;2022-10-03T16:17:22;10.23;;;3.37;;
18188;SDS011;9219;50.396;8.546;2022-10-03T16:19:59;4.40;;;2.90;;
18188;SDS011;9219;50.396;8.546;2022-10-03T16:22:36;6.57;;;3.57;;
18188;SDS011;9219;50.396;8.546;2022-10-03T16:25:15;13.33;;;3.00;;
18188;SDS011;9219;50.396;8.546;2022-10-03T16:31:10;8.60;;;3.73;;
18188;SDS011;9219;50.396;8.546;2022-10-03T16:33:45;14.00;;;4.23;;
18188;SDS011;9219;50.396;8.546;2022-10-03T16:36:23;8.60;;;3.60;;
18188;SDS011;9219;50.396;8.546;2022-10-03T16:38:54;7.43;;;3.60;;
18188;SDS011;9219;50.396;8.546;2022-10-03T16:41:31;8.60;;;3.80;;
18188;SDS011;9219;50.396;8.546;2022-10-03T16:44:10;7.73;;;4.27;;
18188;SDS011;9219;50.396;8.546;2022-10-03T16:46:47;5.97;;;3.23;;
18188;SDS011;9219;50.396;8.546;2022-10-03T16:49:21;9.23;;;3.93;;
18188;SDS011;9219;50.396;8.546;2022-10-03T16:52:48;9.00;;;4.10;;
18188;SDS011;9219;50.396;8.546;2022-10-03T16:55:21;8.73;;;3.50;;
18188;SDS011;9219;50.396;8.546;2022-10-03T16:57:58;5.73;;;3.47;;
18188;SDS011;9219;50.396;8.546;2022-10-03T17:00:40;8.53;;;3.70;;
18188;SDS011;9219;50.396;8.546;2022-10-03T17:03:42;9.57;;;3.93;;
18188;SDS011;9219;50.396;8.546;2022-10-03T17:06:18;7.60;;;3.63;;
18188;SDS011;9219;50.396;8.546;2022-10-03T17:14:42;10.10;;;4.40;;
18188;SDS011;9219;50.396;8.546;2022-10-03T17:17:18;11.63;;;4.07;;
18188;SDS011;9219;50.396;8.546;2022-10-03T17:19:54;8.90;;;3.70;;
18188;SDS011;9219;50.396;8.546;2022-10-03T17:22:29;8.07;;;4.43;;
18188;SDS011;9219;50.396;8.546;2022-10-03T17:25:06;9.60;;;3.60;;
18188;SDS011;9219;50.396;8.546;2022-10-03T17:27:52;7.97;;;3.90;;
18188;SDS011;9219;50.396;8.546;2022-10-03T17:30:31;9.60;;;4.90;;
18188;SDS011;9219;50.396;8.546;2022-10-03T17:41:20;15.83;;;4.00;;
18188;SDS011;9219;50.396;8.546;2022-10-03T17:43:59;5.63;;;3.20;;
18188;SDS011;9219;50.396;8.546;2022-10-03T17:46:42;10.87;;;4.13;;
18188;SDS011;9219;50.396;8.546;2022-10-03T17:49:28;9.87;;;3.50;;
18188;SDS011;9219;50.396;8.546;2022-10-03T17:52:10;5.97;;;3.57;;
18188;SDS011;9219;50.396;8.546;2022-10-03T18:00:52;9.20;;;4.27;;
18188;SDS011;9219;50.396;8.546;2022-10-03T18:03:27;11.03;;;4.57;;
18188;SDS011;9219;50.396;8.546;2022-10-03T18:06:02;7.73;;;4.03;;
18188;SDS011;9219;50.396;8.546;2022-10-03T18:09:08;8.93;;;4.57;;
18188;SDS011;9219;50.396;8.546;2022-10-03T18:11:44;7.10;;;3.63;;
18188;SDS011;9219;50.396;8.546;2022-10-03T18:14:18;6.80;;;4.30;;
18188;SDS011;9219;50.396;8.546;2022-10-03T18:22:47;8.70;;;4.17;;
18188;SDS011;9219;50.396;8.546;2022-10-03T18:25:27;6.53;;;4.10;;
18188;SDS011;9219;50.396;8.546;2022-10-03T18:28:38;10.30;;;4.47;;
18188;SDS011;9219;50.396;8.546;2022-10-03T18:31:15;8.53;;;4.00;;
18188;SDS011;9219;50.396;8.546;2022-10-03T18:33:49;12.77;;;4.57;;
18188;SDS011;9219;50.396;8.546;2022-10-03T18:36:24;7.90;;;3.47;;
18188;SDS011;9219;50.396;8.546;2022-10-03T18:38:57;8.30;;;3.80;;
18188;SDS011;9219;50.396;8.546;2022-10-03T18:46:59;10.07;;;4.03;;
18188;SDS011;9219;50.396;8.546;2022-10-03T18:49:34;8.40;;;3.43;;
18188;SDS011;9219;50.396;8.546;2022-10-03T18:52:08;7.80;;;3.63;;
18188;SDS011;9219;50.396;8.546;2022-10-03T18:54:43;14.43;;;4.47;;
18188;SDS011;9219;50.396;8.546;2022-10-03T18:57:21;8.93;;;4.20;;
18188;SDS011;9219;50.396;8.546;2022-10-03T18:59:53;9.33;;;3.90;;
18188;SDS011;9219;50.396;8.546;2022-10-03T19:02:32;8.10;;;4.07;;
18188;SDS011;9219;50.396;8.546;2022-10-03T19:13:13;8.67;;;3.73;;
18188;SDS011;9219;50.396;8.546;2022-10-03T19:18:46;6.37;;;3.57;;
18188;SDS011;9219;50.396;8.546;2022-10-03T19:21:27;7.37;;;3.43;;
18188;SDS011;9219;50.396;8.546;2022-10-03T19:24:04;8.17;;;3.30;;
18188;SDS011;9219;50.396;8.546;2022-10-03T19:26:42;10.57;;;3.60;;
18188;SDS011;9219;50.396;8.546;2022-10-03T19:34:41;7.63;;;3.10;;
18188;SDS011;9219;50.396;8.546;2022-10-03T19:37:14;4.17;;;2.93;;
18188;SDS011;9219;50.396;8.546;2022-10-03T19:39:46;9.20;;;3.00;;
18188;SDS011;9219;50.396;8.546;2022-10-03T19:42:27;9.90;;;3.20;;
18188;SDS011;9219;50.396;8.546;2022-10-03T19:45:01;9.00;;;2.90;;
18188;SDS011;9219;50.396;8.546;2022-10-03T19:47:32;9.53;;;3.13;;
18188;SDS011;9219;50.396;8.546;2022-10-03T19:56:03;6.97;;;3.67;;
18188;SDS011;9219;50.396;8.546;2022-10-03T19:58:37;10.73;;;4.00;;
18188;SDS011;9219;50.396;8.546;2022-10-03T20:01:05;10.47;;;3.47;;
18188;SDS011;9219;50.396;8.546;2022-10-03T20:03:35;9.00;;;3.80;;
18188;SDS011;9219;50.396;8.546;2022-10-03T20:06:07;6.60;;;3.87;;
18188;SDS011;9219;50.396;8.546;2022-10-03T20:08:44;7.93;;;3.70;;
18188;SDS011;9219;50.396;8.546;2022-10-03T20:11:21;6.03;;;3.50;;
18188;SDS011;9219;50.396;8.546;2022-10-03T20:14:03;8.33;;;3.40;;
18188;SDS011;9219;50.396;8.546;2022-10-03T20:21:40;7.00;;;4.07;;
18188;SDS011;9219;50.396;8.546;2022-10-03T20:24:09;6.73;;;4.00;;
18188;SDS011;9219;50.396;8.546;2022-10-03T20:26:48;6.17;;;3.93;;
18188;SDS011;9219;50.396;8.546;2022-10-03T20:29:28;14.53;;;3.63;;
18188;SDS011;9219;50.396;8.546;2022-10-03T20:32:05;7.03;;;3.63;;
18188;SDS011;9219;50.396;8.546;2022-10-03T20:34:40;10.50;;;3.50;;
18188;SDS011;9219;50.396;8.546;2022-10-03T20:37:20;5.20;;;3.20;;
18188;SDS011;9219;50.396;8.546;2022-10-03T20:45:03;6.20;;;4.37;;
18188;SDS011;9219;50.396;8.546;2022-10-03T20:47:46;11.53;;;4.33;;
18188;SDS011;9219;50.396;8.546;2022-10-03T20:50:29;8.23;;;4.23;;
18188;SDS011;9219;50.396;8.546;2022-10-03T20:53:01;6.63;;;3.80;;
18188;SDS011;9219;50.396;8.546;2022-10-03T20:55:36;8.63;;;4.03;;
18188;SDS011;9219;50.396;8.546;2022-10-03T20:58:12;7.60;;;4.43;;
18188;SDS011;9219;50.396;8.546;2022-10-03T21:00:45;6.90;;;3.90;;
18188;SDS011;9219;50.396;8.546;2022-10-03T21:08:22;8.70;;;3.77;;
18188;SDS011;9219;50.396;8.546;2022-10-03T21:10:53;5.97;;;4.03;;
18188;SDS011;9219;50.396;8.546;2022-10-03T21:13:24;6.37;;;3.63;;
18188;SDS011;9219;50.396;8.546;2022-10-03T21:15:57;9.97;;;3.57;;
18188;SDS011;9219;50.396;8.546;2022-10-03T21:18:28;9.63;;;3.90;;
18188;SDS011;9219;50.396;8.546;2022-10-03T21:21:00;5.03;;;3.13;;
18188;SDS011;9219;50.396;8.546;2022-10-03T21:23:34;7.27;;;3.13;;
18188;SDS011;9219;50.396;8.546;2022-10-03T21:34:06;9.53;;;3.53;;
18188;SDS011;9219;50.396;8.546;2022-10-03T21:36:47;9.60;;;3.50;;
18188;SDS011;9219;50.396;8.546;2022-10-03T21:39:17;6.97;;;3.60;;
18188;SDS011;9219;50.396;8.546;2022-10-03T21:41:57;9.93;;;3.53;;
18188;SDS011;9219;50.396;8.546;2022-10-03T21:44:47;6.47;;;2.97;;
18188;SDS011;9219;50.396;8.546;2022-10-03T21:55:10;6.27;;;3.47;;
18188;SDS011;9219;50.396;8.546;2022-10-03T21:58:15;6.17;;;3.47;;
18188;SDS011;9219;50.396;8.546;2022-10-03T22:01:00;10.23;;;3.70;;
18188;SDS011;9219;50.396;8.546;2022-10-03T22:03:39;6.93;;;3.50;;
18188;SDS011;9219;50.396;8.546;2022-10-03T22:06:12;6.93;;;3.37;;
18188;SDS011;9219;50.396;8.546;2022-10-03T22:08:47;6.63;;;3.27;;
18188;SDS011;9219;50.396;8.546;2022-10-03T22:11:32;6.43;;;3.27;;
18188;SDS011;9219;50.396;8.546;2022-10-03T22:19:17;6.07;;;3.77;;
18188;SDS011;9219;50.396;8.546;2022-10-03T22:21:51;6.37;;;3.73;;
18188;SDS011;9219;50.396;8.546;2022-10-03T22:24:34;6.07;;;3.30;;
18188;SDS011;9219;50.396;8.546;2022-10-03T22:27:11;8.07;;;3.30;;
18188;SDS011;9219;50.396;8.546;2022-10-03T22:29:46;7.13;;;3.23;;
18188;SDS011;9219;50.396;8.546;2022-10-03T22:32:21;8.90;;;3.67;;
18188;SDS011;9219;50.396;8.546;2022-10-03T22:34:56;3.93;;;3.10;;
18188;SDS011;9219;50.396;8.546;2022-10-03T22:42:39;8.23;;;3.70;;
18188;SDS011;9219;50.396;8.546;2022-10-03T22:45:10;7.50;;;4.30;;
18188;SDS011;9219;50.396;8.546;2022-10-03T22:47:41;6.73;;;3.70;;
18188;SDS011;9219;50.396;8.546;2022-10-03T22:50:11;8.63;;;3.60;;
18188;SDS011;9219;50.396;8.546;2022-10-03T22:52:44;6.10;;;3.70;;
18188;SDS011;9219;50.396;8.546;2022-10-03T22:55:15;11.63;;;3.63;;
18188;SDS011;9219;50.396;8.546;2022-10-03T22:57:47;6.33;;;3.20;;
18188;SDS011;9219;50.396;8.546;2022-10-03T23:00:20;7.57;;;3.40;;
18188;SDS011;9219;50.396;8.546;2022-10-03T23:03:17;4.20;;;2.90;;
18188;SDS011;9219;50.396;8.546;2022-10-03T23:08:45;4.30;;;2.73;;
18188;SDS011;9219;50.396;8.546;2022-10-03T23:11:23;6.60;;;2.90;;
18188;SDS011;9219;50.396;8.546;2022-10-03T23:13:53;6.17;;;2.97;;
18188;SDS011;9219;50.396;8.546;2022-10-03T23:16:34;23.13;;;3.90;;
18188;SDS011;9219;50.396;8.546;2022-10-03T23:19:17;6.30;;;3.47;;
18188;SDS011;9219;50.396;8.546;2022-10-03T23:26:59;7.43;;;3.00;;
18188;SDS011;9219;50.396;8.546;2022-10-03T23:30:11;10.93;;;3.47;;
18188;SDS011;9219;50.396;8.546;2022-10-03T23:33:07;4.23;;;2.30;;
18188;SDS011;9219;50.396;8.546;2022-10-03T23:35:42;6.63;;;2.80;;
18188;SDS011;9219;50.396;8.546;2022-10-03T23:41:25;6.03;;;3.20;;
18188;SDS011;9219;50.396;8.546;2022-10-03T23:49:41;4.23;;;2.50;;
18188;SDS011;9219;50.396;8.546;2022-10-03T23:52:16;8.07;;;2.87;;
18188;SDS011;9219;50.396;8.546;2022-10-03T23:54:47;3.30;;;2.13;;
18188;SDS011;9219;50.396;8.546;2022-10-03T23:57:15;3.83;;;2.80;;
18188;SDS011;9219;50.396;8.546;2022-10-03T23:59:45;12.00;;;3.20;;
